Time;durP1;ratioP1;P1;durP2;ratioP2;P2;SDS_P1;SDS_P2;PMS_P1;PMS_P2;Temp;Humidity;BMP_temperature;BMP_pressure;BME280_temperature;BME280_humidity;BME280_pressure;Samples;Min_cycle;Max_cycle;Signal;HPM_P1;HPM_P2
2024/02/12 00:01:19;;;;;;;0.68;0.55;;;;;;;13.60;100.00;99271.13;4868353;29;20071;-72
2024/02/12 00:03:45;;;;;;;1.55;1.45;;;;;;;14.04;100.00;99360.31;4869735;29;20068;-73
2024/02/12 00:06:11;;;;;;;0.47;0.45;;;;;;;14.19;100.00;99372.13;4867649;29;20048;-73
2024/02/12 00:08:36;;;;;;;0.55;0.35;;;;;;;14.10;100.00;99363.63;4870938;29;20065;-74
2024/02/12 00:11:02;;;;;;;15.63;1.05;;;;;;;13.79;100.00;99315.34;4869220;29;20401;-72
2024/02/12 00:13:28;;;;;;;0.20;0.20;;;;;;;13.59;100.00;99289.63;4867768;29;20072;-71
2024/02/12 00:15:54;;;;;;;0.30;0.30;;;;;;;13.63;100.00;99309.72;4852778;29;20049;-71
2024/02/12 00:18:23;;;;;;;0.43;0.40;;;;;;;13.97;100.00;99374.59;4868423;29;20067;-72
2024/02/12 00:20:49;;;;;;;0.65;0.47;;;;;;;13.92;100.00;99345.72;4858066;29;20043;-73
2024/02/12 00:23:15;;;;;;;0.60;0.52;;;;;;;13.83;100.00;99338.94;4871611;29;20523;-73
2024/02/12 00:25:41;;;;;;;0.90;0.90;;;;;;;13.54;100.00;99273.94;4868960;29;20080;-74
2024/02/12 00:28:07;;;;;;;0.70;0.60;;;;;;;13.93;100.00;99358.00;4869405;29;20125;-73
2024/02/12 00:30:35;;;;;;;1.27;0.75;;;;;;;13.52;100.00;99278.41;4870841;29;20465;-73
2024/02/12 00:33:06;;;;;;;0.20;0.20;;;;;;;13.42;100.00;99271.69;4874694;29;20025;-73
2024/02/12 00:35:36;;;;;;;6.35;0.35;;;;;;;13.81;100.00;99361.00;4871782;29;20060;-73
2024/02/12 00:38:03;;;;;;;2.13;1.15;;;;;;;13.20;100.00;99269.63;4871569;29;20036;-72
2024/02/12 00:40:30;;;;;;;1.17;0.73;;;;;;;13.91;100.00;99362.47;4869964;29;20041;-72
2024/02/12 00:42:57;;;;;;;0.90;0.68;;;;;;;13.88;100.00;99350.25;4868491;29;20041;-72
2024/02/12 00:45:23;;;;;;;0.85;0.70;;;;;;;13.84;100.00;99347.75;4873714;29;20051;-74
2024/02/12 00:47:50;;;;;;;0.65;0.65;;;;;;;13.61;100.00;99298.34;4872240;29;20044;-72
2024/02/12 00:50:17;;;;;;;0.20;0.20;;;;;;;13.69;100.00;99307.72;4879998;29;20263;-72
2024/02/12 00:52:43;;;;;;;0.47;0.47;;;;;;;13.42;100.00;99284.88;4860045;29;20048;-71
2024/02/12 00:55:11;;;;;;;0.65;0.65;;;;;;;13.72;100.00;99312.94;4870643;29;20318;-71
2024/02/12 00:57:37;;;;;;;0.45;0.43;;;;;;;13.66;100.00;99310.47;4869732;29;20148;-71
2024/02/12 01:00:12;;;;;;;2.60;1.70;;;;;;;13.22;100.00;99251.16;4873753;29;20122;-72
2024/02/12 01:02:42;;;;;;;1.33;1.17;;;;;;;13.12;100.00;99239.19;4873199;29;20531;-72
2024/02/12 01:05:08;;;;;;;0.82;0.52;;;;;;;13.63;100.00;99323.75;4868970;29;20565;-72
2024/02/12 01:07:35;;;;;;;1.23;0.95;;;;;;;13.03;100.00;99246.41;4870255;29;20053;-72
2024/02/12 01:10:05;;;;;;;1.55;1.05;;;;;;;13.58;100.00;99330.03;4864702;29;20045;-72
2024/02/12 01:12:31;;;;;;;0.82;0.70;;;;;;;13.52;100.00;99333.75;4867021;29;20052;-72
2024/02/12 01:14:58;;;;;;;0.77;0.65;;;;;;;13.47;100.00;99315.44;4870044;29;20105;-72
2024/02/12 01:17:25;;;;;;;6.10;2.67;;;;;;;13.00;100.00;99228.09;4868976;29;20502;-72
2024/02/12 01:19:53;;;;;;;0.73;0.40;;;;;;;12.70;100.00;99200.00;4867248;29;20060;-72
2024/02/12 01:22:19;;;;;;;0.25;0.22;;;;;;;12.81;100.00;99226.91;4871534;29;20064;-72
2024/02/12 01:24:46;;;;;;;3.42;0.68;;;;;;;13.26;100.00;99303.72;4872187;29;20049;-72
2024/02/12 01:27:12;;;;;;;0.85;0.85;;;;;;;13.29;100.00;99308.91;4868978;29;20125;-72
2024/02/12 01:29:40;;;;;;;1.20;0.82;;;;;;;13.14;100.00;99301.44;4868408;29;20033;-72
2024/02/12 01:32:09;;;;;;;0.60;0.40;;;;;;;13.10;100.00;99282.22;4869441;29;20060;-72
2024/02/12 01:34:35;;;;;;;1.75;1.65;;;;;;;12.34;100.00;99148.38;4871205;29;20112;-71
2024/02/12 01:37:01;;;;;;;3.97;1.88;;;;;;;12.62;100.00;99208.13;4871795;29;20454;-72
2024/02/12 01:39:27;;;;;;;0.47;0.45;;;;;;;13.09;100.00;99293.66;4870259;29;26084;-72
2024/02/12 01:41:52;;;;;;;1.40;0.90;;;;;;;12.57;100.00;99215.25;4873475;29;20088;-72
2024/02/12 01:44:18;;;;;;;0.40;0.40;;;;;;;12.45;100.00;99198.94;4864897;29;20052;-72
2024/02/12 01:46:49;;;;;;;5.30;2.13;;;;;;;12.36;100.00;99179.88;4853658;29;20080;-72
2024/02/12 01:49:21;;;;;;;0.77;0.50;;;;;;;12.93;100.00;99302.91;4866959;29;20132;-72
2024/02/12 01:51:48;;;;;;;0.20;0.20;;;;;;;12.78;100.00;99280.50;4866968;29;20049;-73
2024/02/12 01:54:17;;;;;;;1.98;1.80;;;;;;;12.56;100.00;99235.47;4862929;29;20569;-72
2024/02/12 01:56:45;;;;;;;0.20;0.20;;;;;;;12.82;100.00;99286.53;4872169;29;20049;-73
2024/02/12 01:59:16;;;;;;;0.68;0.68;;;;;;;12.27;100.00;99204.69;4868554;29;20410;-72
2024/02/12 02:01:43;;;;;;;0.82;0.47;;;;;;;12.42;100.00;99259.50;4869192;29;20049;-72
2024/02/12 02:04:09;;;;;;;5.78;1.55;;;;;;;12.15;100.00;99216.38;4868045;29;20059;-72
2024/02/12 02:06:36;;;;;;;1.85;1.67;;;;;;;12.63;100.00;99294.91;4852469;29;20470;-73
2024/02/12 02:09:02;;;;;;;0.40;0.40;;;;;;;12.31;100.00;99316.78;4868372;29;20060;-72
2024/02/12 02:11:28;;;;;;;0.65;0.65;;;;;;;12.30;100.00;99283.50;4867698;29;20080;-72
2024/02/12 02:13:53;;;;;;;0.30;0.30;;;;;;;12.59;100.00;99318.72;4846442;29;20136;-72
2024/02/12 02:16:19;;;;;;;0.47;0.45;;;;;;;12.43;100.00;99298.06;4867535;29;20048;-73
2024/02/12 02:18:50;;;;;;;1.48;1.38;;;;;;;12.52;100.00;99307.47;4868893;29;20053;-72
2024/02/12 02:21:21;;;;;;;1.33;1.15;;;;;;;12.53;100.00;99311.00;4867463;29;20075;-73
2024/02/12 02:23:51;;;;;;;0.45;0.45;;;;;;;12.25;100.00;99261.72;4871802;29;20048;-73
2024/02/12 02:26:16;;;;;;;4.93;2.25;;;;;;;11.90;100.00;99246.81;4854309;29;20037;-74
2024/02/12 02:28:42;;;;;;;0.85;0.63;;;;;;;11.79;100.00;99190.06;4871231;29;20124;-74
2024/02/12 02:31:07;;;;;;;0.57;0.57;;;;;;;12.28;100.00;99290.56;4870394;29;20073;-72
2024/02/12 02:33:35;;;;;;;2.00;1.38;;;;;;;11.76;100.00;99199.81;4868443;29;20139;-72
2024/02/12 02:36:02;;;;;;;1.75;1.48;;;;;;;11.81;100.00;99214.56;4870693;29;20092;-72
2024/02/12 02:38:28;;;;;;;1.45;0.75;;;;;;;12.21;100.00;99262.69;4871359;29;20140;-73
2024/02/12 02:40:53;;;;;;;0.60;0.55;;;;;;;11.76;100.00;99210.31;4871889;29;20136;-73
2024/02/12 02:43:19;;;;;;;2.03;1.85;;;;;;;11.57;100.00;99197.63;4869745;29;20128;-73
2024/02/12 02:45:45;;;;;;;0.60;0.43;;;;;;;11.75;100.00;99245.38;4869403;29;20498;-73
2024/02/12 02:48:10;;;;;;;2.05;1.65;;;;;;;12.17;100.00;99292.59;4866559;29;20033;-73
2024/02/12 02:50:36;;;;;;;1.85;1.52;;;;;;;12.21;100.00;99289.00;4853024;29;20052;-73
2024/02/12 02:53:02;;;;;;;0.30;0.30;;;;;;;11.93;100.00;99250.22;4850223;29;20056;-73
2024/02/12 02:55:28;;;;;;;2.95;2.75;;;;;;;11.72;100.00;99250.69;4868650;29;20057;-75
2024/02/12 02:58:01;;;;;;;1.60;1.50;;;;;;;11.57;100.00;99194.13;4865437;29;20125;-73
2024/02/12 03:00:31;;;;;;;1.30;1.20;;;;;;;11.79;100.00;99276.78;4863610;29;20064;-73
2024/02/12 03:02:58;;;;;;;1.48;1.38;;;;;;;11.67;100.00;99252.59;4867238;29;20048;-74
2024/02/12 03:05:27;;;;;;;1.25;1.15;;;;;;;11.33;100.00;99178.06;4869121;29;20581;-74
2024/02/12 03:07:58;;;;;;;1.23;0.70;;;;;;;11.61;100.00;99264.97;4869877;29;20045;-73
2024/02/12 03:10:24;;;;;;;1.42;1.33;;;;;;;11.96;100.00;99281.72;4869184;29;20497;-73
2024/02/12 03:12:50;;;;;;;1.58;1.13;;;;;;;11.68;100.00;99294.56;4870222;29;20080;-73
2024/02/12 03:15:16;;;;;;;0.65;0.65;;;;;;;11.65;100.00;99263.13;4869729;29;20044;-72
2024/02/12 03:17:43;;;;;;;1.17;1.08;;;;;;;11.70;100.00;99252.50;4867055;29;20458;-73
2024/02/12 03:20:11;;;;;;;1.13;1.02;;;;;;;11.77;100.00;99265.44;4869965;29;20108;-73
2024/02/12 03:22:41;;;;;;;0.50;0.50;;;;;;;11.32;100.00;99188.59;4866797;29;20064;-72
2024/02/12 03:25:08;;;;;;;0.60;0.60;;;;;;;11.22;100.00;99193.19;4867769;29;20069;-73
2024/02/12 03:27:38;;;;;;;1.65;1.15;;;;;;;10.99;100.00;99175.31;4869892;29;20049;-72
2024/02/12 03:30:05;;;;;;;3.50;1.77;;;;;;;11.58;100.00;99277.28;4868787;29;20457;-73
2024/02/12 03:32:32;;;;;;;0.95;0.88;;;;;;;11.59;100.00;99274.66;4869069;29;20117;-74
2024/02/12 03:34:57;;;;;;;0.40;0.40;;;;;;;11.37;100.00;99244.47;4870194;29;20537;-72
2024/02/12 03:37:27;;;;;;;1.98;1.85;;;;;;;11.61;100.00;99277.22;4869694;29;20162;-72
2024/02/12 03:39:53;;;;;;;2.78;1.92;;;;;;;10.99;100.00;99198.94;4868163;29;20576;-72
2024/02/12 03:42:27;;;;;;;3.38;3.08;;;;;;;11.03;100.00;99208.47;4871188;29;20052;-71
2024/02/12 03:44:53;;;;;;;1.95;1.80;;;;;;;11.22;100.00;99256.19;4870721;29;20185;-71
2024/02/12 03:47:27;;;;;;;0.80;0.65;;;;;;;10.67;100.00;99225.81;4869750;29;20051;-73
2024/02/12 04:00:52;;;;;;;3.58;1.17;;;;;;;10.99;100.00;99212.06;4870721;29;20048;-71
2024/02/12 04:03:19;;;;;;;1.48;1.38;;;;;;;11.19;100.00;99262.38;4872687;29;20059;-73
2024/02/12 04:05:45;;;;;;;1.75;1.60;;;;;;;10.65;100.00;99189.16;4866696;29;20041;-71
2024/02/12 04:08:10;;;;;;;1.20;1.10;;;;;;;11.12;100.00;99273.03;4868466;29;20414;-72
2024/02/12 04:10:37;;;;;;;0.80;0.77;;;;;;;10.91;100.00;99266.44;4871266;29;20069;-72
2024/02/12 04:13:04;;;;;;;1.40;1.30;;;;;;;10.87;100.00;99281.41;4871344;29;20489;-74
2024/02/12 04:15:30;;;;;;;2.63;2.20;;;;;;;10.53;100.00;99181.50;4872897;29;20141;-73
2024/02/12 04:17:56;;;;;;;1.90;1.52;;;;;;;10.91;100.00;99246.34;4867792;29;20071;-73
2024/02/12 04:20:22;;;;;;;3.03;2.58;;;;;;;10.90;100.00;99260.34;4851922;29;20494;-71
2024/02/12 04:22:48;;;;;;;2.60;1.48;;;;;;;10.38;100.00;99171.31;4871964;29;20045;-71
2024/02/12 04:25:14;;;;;;;1.83;1.73;;;;;;;10.93;100.00;99280.41;4868900;29;20045;-72
2024/02/12 04:27:41;;;;;;;0.95;0.88;;;;;;;10.80;100.00;99253.56;4869873;29;20500;-73
2024/02/12 04:30:10;;;;;;;2.92;2.17;;;;;;;10.86;100.00;99252.56;4869079;29;20465;-72
2024/02/12 04:32:36;;;;;;;2.28;2.08;;;;;;;10.29;100.00;99175.84;4866603;29;20120;-71
2024/02/12 04:35:03;;;;;;;2.03;1.88;;;;;;;10.67;100.00;99268.66;4868789;29;20045;-71
2024/02/12 04:37:30;;;;;;;1.92;1.80;;;;;;;10.61;100.00;99292.41;4851021;29;20076;-73
2024/02/12 04:39:55;;;;;;;2.45;2.25;;;;;;;10.25;100.00;99194.22;4868226;29;20049;-72
2024/02/12 04:42:21;;;;;;;1.92;1.80;;;;;;;10.14;100.00;99178.72;4869546;29;20052;-72
2024/02/12 04:44:47;;;;;;;4.63;2.35;;;;;;;10.78;100.00;99290.31;4871934;29;20025;-72
2024/02/12 04:47:12;;;;;;;5.05;2.28;;;;;;;10.84;100.00;99293.69;4869145;29;20045;-72
2024/02/12 04:49:38;;;;;;;1.48;1.30;;;;;;;10.60;100.00;99277.53;4869403;29;20499;-72
2024/02/12 04:52:05;;;;;;;2.03;1.17;;;;;;;10.57;100.00;99293.34;4869587;29;20049;-73
2024/02/12 04:54:33;;;;;;;0.60;0.60;;;;;;;10.76;100.00;99292.09;4866050;29;20175;-73
2024/02/12 04:56:59;;;;;;;1.70;1.60;;;;;;;10.57;100.00;99291.56;4869816;29;20064;-73
2024/02/12 04:59:25;;;;;;;2.38;2.17;;;;;;;10.80;100.00;99299.94;4871150;29;20064;-72
2024/02/12 05:01:50;;;;;;;1.90;1.80;;;;;;;10.34;100.00;99225.56;4867614;29;20143;-73
2024/02/12 05:04:17;;;;;;;6.22;3.70;;;;;;;10.26;100.00;99215.19;4854488;29;20405;-73
2024/02/12 05:06:43;;;;;;;0.20;0.20;;;;;;;10.97;100.00;99295.22;4867701;29;20056;-74
2024/02/12 05:09:11;;;;;;;4.53;2.90;;;;;;;10.86;100.00;99292.78;4871422;29;21063;-73
2024/02/12 05:11:37;;;;;;;10.65;4.15;;;;;;;10.68;100.00;99285.28;4871695;29;20096;-73
2024/02/12 05:14:03;;;;;;;1.98;1.80;;;;;;;9.93;100.00;99193.94;4869739;29;20053;-73
2024/02/12 05:16:34;;;;;;;2.47;2.28;;;;;;;10.35;100.00;99243.03;4870133;29;21322;-72
2024/02/12 05:24:36;;;;;;;1.30;1.20;;;;;;;10.51;100.00;99283.84;4870034;29;20116;-73
2024/02/12 05:27:02;;;;;;;1.40;1.30;;;;;;;10.59;100.00;99303.81;4856044;29;20077;-73
2024/02/12 05:29:28;;;;;;;6.00;5.53;;;;;;;9.96;100.00;99221.81;4865977;29;20049;-73
2024/02/12 05:31:54;;;;;;;1.58;1.38;;;;;;;10.04;100.00;99297.69;4868443;29;20052;-72
2024/02/12 05:34:21;;;;;;;1.98;1.85;;;;;;;10.04;100.00;99319.50;4871773;29;20045;-74
2024/02/12 05:36:56;;;;;;;3.35;3.03;;;;;;;9.99;100.00;99328.34;4865775;29;20049;-72
2024/02/12 05:39:22;;;;;;;1.45;1.35;;;;;;;10.12;100.00;99324.66;4870906;29;20120;-74
2024/02/12 05:41:48;;;;;;;4.55;4.15;;;;;;;9.90;100.00;99324.09;4873354;29;20463;-73
2024/02/12 05:44:15;;;;;;;1.70;1.35;;;;;;;9.47;100.00;99241.78;4871156;29;20045;-73
2024/02/12 05:46:41;;;;;;;3.22;3.05;;;;;;;9.92;100.00;99283.03;4872453;29;20101;-74
2024/02/12 05:49:06;;;;;;;3.78;3.47;;;;;;;10.01;100.00;99334.44;4871459;29;20049;-74
2024/02/12 05:51:33;;;;;;;1.55;1.45;;;;;;;10.02;100.00;99312.56;4853959;29;20489;-75
2024/02/12 05:54:00;;;;;;;1.45;1.15;;;;;;;10.35;100.00;99329.56;4872367;29;20032;-73
2024/02/12 05:56:26;;;;;;;1.63;1.48;;;;;;;9.38;100.00;99226.22;4853755;29;20109;-74
2024/02/12 05:58:52;;;;;;;6.05;5.30;;;;;;;9.33;100.00;99220.19;4869301;29;20383;-73
2024/02/12 06:01:17;;;;;;;2.80;2.58;;;;;;;9.73;100.00;99300.78;4871243;29;20105;-75
2024/02/12 06:03:45;;;;;;;0.50;0.50;;;;;;;9.61;100.00;99232.88;4871938;29;20041;-74
2024/02/12 06:06:12;;;;;;;3.10;2.28;;;;;;;10.30;100.00;99340.13;4865900;29;20143;-73
2024/02/12 06:08:38;;;;;;;2.08;1.98;;;;;;;10.21;100.00;99332.38;4872201;29;20093;-73
2024/02/12 06:11:04;;;;;;;2.80;2.60;;;;;;;10.46;100.00;99332.00;4870509;29;20049;-73
2024/02/12 06:13:29;;;;;;;5.90;4.28;;;;;;;10.48;100.00;99324.97;4869531;29;20049;-73
2024/02/12 06:15:58;;;;;;;3.15;2.83;;;;;;;9.92;100.00;99268.16;4864632;29;20064;-73
2024/02/12 06:18:23;;;;;;;5.85;3.47;;;;;;;9.66;100.00;99241.50;4852191;29;20029;-73
2024/02/12 06:20:50;;;;;;;0.85;0.85;;;;;;;9.91;100.00;99318.84;4872569;29;20025;-72
2024/02/12 06:23:16;;;;;;;1.75;1.65;;;;;;;9.78;100.00;99314.66;4856766;29;20036;-73
2024/02/12 06:25:42;;;;;;;5.10;4.30;;;;;;;9.61;100.00;99316.69;4871804;29;20049;-74
2024/02/12 06:28:11;;;;;;;3.15;2.92;;;;;;;9.62;100.00;99336.72;4868873;29;20049;-72
2024/02/12 06:30:36;;;;;;;1.35;1.25;;;;;;;9.15;100.00;99257.94;4870208;29;20056;-74
2024/02/12 06:33:03;;;;;;;0.50;0.50;;;;;;;9.41;100.00;99335.25;4872155;29;20033;-73
2024/02/12 06:35:29;;;;;;;6.32;4.78;;;;;;;8.85;100.00;99251.34;4870345;29;20056;-73
2024/02/12 06:37:55;;;;;;;2.67;1.75;;;;;;;9.17;100.00;99332.06;4871699;29;20059;-74
2024/02/12 06:40:21;;;;;;;1.95;1.90;;;;;;;8.51;100.00;99232.56;4871672;29;20053;-72
2024/02/12 06:42:47;;;;;;;2.05;1.95;;;;;;;8.77;100.00;99290.66;4868992;29;20117;-74
2024/02/12 06:45:14;;;;;;;12.68;3.63;;;;;;;8.98;100.00;99346.25;4869939;29;20040;-74
2024/02/12 06:47:41;;;;;;;3.88;3.70;;;;;;;8.86;100.00;99355.94;4872138;29;20108;-73
2024/02/12 06:50:07;;;;;;;7.43;6.85;;;;;;;8.35;100.00;99266.63;4871276;29;20080;-73
2024/02/12 06:52:33;;;;;;;0.20;0.20;;;;;;;8.86;100.00;99355.94;4868724;29;20053;-73
2024/02/12 06:54:59;;;;;;;2.47;2.35;;;;;;;8.51;100.00;99344.97;4874946;29;20045;-73
2024/02/12 06:57:25;;;;;;;15.30;14.18;;;;;;;8.11;100.00;99274.72;4873627;29;20567;-73
2024/02/12 06:59:50;;;;;;;1.45;0.65;;;;;;;8.58;100.00;99364.94;4873508;29;20108;-73
2024/02/12 07:02:19;;;;;;;1.00;0.95;;;;;;;7.95;100.00;99248.72;4857511;29;20144;-74
2024/02/12 07:04:46;;;;;;;6.53;4.55;;;;;;;8.49;100.00;99354.56;4874475;29;20053;-73
2024/02/12 07:07:11;;;;;;;0.90;0.90;;;;;;;8.57;100.00;99358.84;4871911;29;20076;-73
2024/02/12 07:09:38;;;;;;;3.08;2.88;;;;;;;8.52;100.00;99359.75;4874998;29;20057;-72
2024/02/12 07:12:04;;;;;;;1.02;1.02;;;;;;;8.44;100.00;99360.69;4873667;29;20156;-73
2024/02/12 07:14:30;;;;;;;0.30;0.30;;;;;;;7.82;100.00;99250.56;4873320;29;20061;-73
2024/02/12 07:16:56;;;;;;;0.30;0.30;;;;;;;7.79;100.00;99268.84;4874988;29;20545;-72
2024/02/12 07:19:22;;;;;;;4.25;3.95;;;;;;;8.36;100.00;99344.19;4874841;29;20120;-73
2024/02/12 07:21:48;;;;;;;3.80;3.60;;;;;;;8.69;100.00;99350.03;4873877;29;20057;-73
2024/02/12 07:24:15;;;;;;;11.13;5.65;;;;;;;8.94;100.00;99349.75;4874694;29;20051;-72
2024/02/12 07:26:42;;;;;;;2.58;2.45;;;;;;;8.58;100.00;99296.97;4875471;29;20037;-73
2024/02/12 07:29:08;;;;;;;3.70;2.92;;;;;;;8.88;100.00;99327.16;4856045;29;20511;-73
2024/02/12 07:31:36;;;;;;;6.43;5.88;;;;;;;8.67;100.00;99278.56;4874566;29;20084;-73
2024/02/12 07:34:03;;;;;;;7.15;6.72;;;;;;;8.88;100.00;99287.94;4873185;29;20041;-73
2024/02/12 07:36:30;;;;;;;5.35;4.95;;;;;;;8.88;100.00;99259.16;4874451;29;20056;-73
2024/02/12 07:38:55;;;;;;;5.80;5.18;;;;;;;9.05;100.00;99285.09;4873478;29;20032;-72
2024/02/12 07:41:21;;;;;;;0.25;0.25;;;;;;;8.76;100.00;99205.25;4874358;29;20442;-73
2024/02/12 07:43:46;;;;;;;4.22;4.03;;;;;;;9.30;100.00;99291.78;4873298;29;20141;-72
2024/02/12 07:46:14;;;;;;;14.25;5.97;;;;;;;9.46;100.00;99268.00;4874792;29;20047;-71
2024/02/12 07:48:41;;;;;;;5.32;5.03;;;;;;;9.00;100.00;99158.72;4874331;29;20047;-72
2024/02/12 07:51:07;;;;;;;17.63;16.35;;;;;;;9.51;100.00;99200.72;4874100;29;20331;-72
2024/02/12 07:53:32;;;;;;;0.40;0.40;;;;;;;10.00;100.00;99251.47;4872291;29;20052;-72
2024/02/12 07:55:58;;;;;;;5.05;3.85;;;;;;;10.27;100.00;99252.75;4873012;29;20889;-73
2024/02/12 07:58:24;;;;;;;1.85;1.75;;;;;;;10.09;100.00;99181.41;4871629;29;20537;-74
2024/02/12 08:00:50;;;;;;;1.65;1.55;;;;;;;10.35;100.00;99222.06;4874315;29;20144;-74
2024/02/12 08:03:18;;;;;;;12.10;7.85;;;;;;;10.70;100.00;99255.50;4877344;29;20356;-74
2024/02/12 08:05:47;;;;;;;4.93;4.60;;;;;;;10.32;100.00;99172.28;4877832;29;20177;-74
2024/02/12 08:08:13;;;;;;;0.55;0.55;;;;;;;10.83;100.00;99215.88;4873647;29;20124;-73
2024/02/12 08:10:43;;;;;;;3.30;2.83;;;;;;;10.75;100.00;99132.94;4872321;29;20100;-73
2024/02/12 08:13:09;;;;;;;0.43;0.43;;;;;;;11.67;100.00;99219.28;4873636;29;20072;-73
2024/02/12 08:15:35;;;;;;;19.42;4.05;;;;;;;11.86;100.00;99179.41;4873470;29;20083;-75
2024/02/12 08:18:06;;;;;;;4.65;3.72;;;;;;;12.49;100.00;99214.63;4873325;29;20052;-74
2024/02/12 08:20:32;;;;;;;3.60;3.45;;;;;;;12.83;100.00;99214.53;4856662;29;20274;-73
2024/02/12 08:22:58;;;;;;;2.85;2.60;;;;;;;13.07;100.00;99208.56;4869400;29;20057;-71
2024/02/12 08:25:25;;;;;;;0.45;0.45;;;;;;;13.22;100.00;99164.22;4872442;29;20049;-72
2024/02/12 08:27:50;;;;;;;2.72;2.53;;;;;;;12.98;100.00;99107.91;4873284;29;20521;-73
2024/02/12 08:30:17;;;;;;;4.75;1.90;;;;;;;13.39;100.00;99116.31;4872361;29;20037;-73
2024/02/12 08:32:43;;;;;;;3.28;2.97;;;;;;;13.60;100.00;99065.53;4874504;29;20087;-72
2024/02/12 08:35:09;;;;;;;11.82;2.78;;;;;;;13.88;100.00;99083.03;4872873;29;20482;-73
2024/02/12 08:37:37;;;;;;;2.90;2.38;;;;;;;14.33;100.00;99154.41;4873117;29;20113;-72
2024/02/12 08:40:07;;;;;;;14.65;3.25;;;;;;;14.10;100.00;99088.41;4871881;29;20049;-73
2024/02/12 08:42:33;;;;;;;1.67;1.15;;;;;;;14.80;100.00;99163.31;4871691;29;20320;-72
2024/02/12 08:45:00;;;;;;;1.58;1.48;;;;;;;14.86;100.00;99156.00;4872495;29;20141;-73
2024/02/12 08:47:26;;;;;;;3.75;2.58;;;;;;;14.60;100.00;99074.31;4872462;29;20049;-73
2024/02/12 08:49:53;;;;;;;1.05;0.95;;;;;;;15.09;100.00;99149.84;4870791;29;20132;-73
2024/02/12 08:52:19;;;;;;;3.90;2.92;;;;;;;15.10;100.00;99132.22;4872342;29;20124;-72
2024/02/12 08:54:45;;;;;;;3.28;2.17;;;;;;;14.13;100.00;98982.78;4867416;29;20086;-72
2024/02/12 08:57:14;;;;;;;0.65;0.65;;;;;;;15.13;100.00;99132.13;4872825;29;20516;-73
2024/02/12 08:59:43;;;;;;;1.67;0.93;;;;;;;15.13;100.00;99129.47;4868864;29;20045;-73
2024/02/12 09:02:09;;;;;;;1.23;1.13;;;;;;;15.15;100.00;99122.34;4872923;29;20080;-74
2024/02/12 09:04:35;;;;;;;3.30;3.00;;;;;;;14.78;100.00;99050.69;4872553;29;20057;-74
2024/02/12 09:07:01;;;;;;;0.40;0.40;;;;;;;14.91;100.00;99060.75;4870322;29;20075;-75
2024/02/12 09:09:27;;;;;;;1.75;1.65;;;;;;;15.28;100.00;99102.41;4870209;29;20037;-72
2024/02/12 09:11:53;;;;;;;0.95;0.65;;;;;;;15.32;100.00;99108.47;4868782;29;20029;-74
2024/02/12 09:14:19;;;;;;;1.55;1.45;;;;;;;14.97;100.00;99042.03;4871100;29;20097;-72
2024/02/12 09:16:45;;;;;;;0.82;0.82;;;;;;;15.36;100.00;99096.84;4872031;29;20060;-72
2024/02/12 09:19:11;;;;;;;0.55;0.55;;;;;;;14.88;100.00;99003.63;4872480;29;20068;-72
2024/02/12 09:21:41;;;;;;;0.63;0.63;;;;;;;15.49;100.00;99094.53;4871510;29;20061;-72
2024/02/12 09:24:07;;;;;;;1.25;1.15;;;;;;;15.33;100.00;99059.94;4856690;29;20047;-72
2024/02/12 09:26:33;;;;;;;0.85;0.57;;;;;;;15.06;100.00;99003.84;4871504;29;20123;-72
2024/02/12 09:29:01;;;;;;;0.38;0.38;;;;;;;15.49;100.00;99063.69;4871098;29;20069;-73
2024/02/12 09:31:33;;;;;;;0.40;0.40;;;;;;;15.61;100.00;99089.59;4869591;29;20047;-73
2024/02/12 09:34:02;;;;;;;1.73;1.60;;;;;;;15.61;100.00;99064.94;4869020;29;20048;-74
2024/02/12 09:36:28;;;;;;;5.55;2.88;;;;;;;15.63;100.00;99084.25;4870711;29;20060;-73
2024/02/12 09:38:54;;;;;;;9.30;2.22;;;;;;;15.71;100.00;99076.00;4873136;29;20041;-73
2024/02/12 09:41:28;;;;;;;0.50;0.47;;;;;;;15.26;100.00;98987.13;4871327;29;20419;-72
2024/02/12 09:43:55;;;;;;;0.40;0.40;;;;;;;15.73;100.00;99068.88;4870976;29;20045;-73
2024/02/12 09:46:21;;;;;;;0.88;0.85;;;;;;;15.77;100.00;99062.53;4867275;29;20048;-72
2024/02/12 09:48:51;;;;;;;9.73;2.88;;;;;;;15.74;100.00;99062.69;4869943;29;20045;-73
2024/02/12 09:51:17;;;;;;;0.30;0.30;;;;;;;15.41;100.00;98984.72;4870336;29;20400;-72
2024/02/12 09:53:44;;;;;;;1.55;1.20;;;;;;;15.65;100.00;99034.81;4872556;29;20516;-74
2024/02/12 09:56:14;;;;;;;3.28;1.75;;;;;;;15.69;100.00;99048.78;4871611;29;20439;-73
2024/02/12 09:58:40;;;;;;;1.17;1.08;;;;;;;15.57;100.00;99029.84;4866749;29;20112;-73
2024/02/12 10:01:06;;;;;;;0.55;0.55;;;;;;;15.63;100.00;99032.22;4870221;29;20557;-73
2024/02/12 10:03:34;;;;;;;2.78;2.10;;;;;;;15.16;100.00;98947.88;4868897;29;20576;-73
2024/02/12 10:06:00;;;;;;;2.55;2.35;;;;;;;15.14;100.00;98954.16;4871435;29;20062;-72
2024/02/12 10:08:30;;;;;;;2.10;1.70;;;;;;;15.14;100.00;98940.94;4865937;29;20507;-74
2024/02/12 10:10:56;;;;;;;2.65;2.45;;;;;;;15.29;100.00;98963.22;4871717;29;20494;-73
2024/02/12 10:13:23;;;;;;;0.30;0.30;;;;;;;15.49;100.00;98992.28;4870730;29;20093;-73
2024/02/12 10:15:50;;;;;;;0.20;0.20;;;;;;;15.78;100.00;99025.47;4869411;29;20067;-74
2024/02/12 10:18:16;;;;;;;1.30;1.20;;;;;;;15.30;100.00;98947.28;4871989;29;20037;-73
2024/02/12 10:20:45;;;;;;;1.48;1.08;;;;;;;15.37;100.00;98980.47;4871038;29;20063;-72
2024/02/12 10:23:15;;;;;;;5.68;1.75;;;;;;;15.67;100.00;99008.31;4871085;29;20413;-73
2024/02/12 10:25:47;;;;;;;1.83;1.70;;;;;;;15.80;100.00;99020.09;4871702;29;20441;-75
2024/02/12 10:28:14;;;;;;;0.90;0.75;;;;;;;15.43;100.00;98947.66;4876985;29;20060;-73
2024/02/12 10:30:41;;;;;;;1.17;1.08;;;;;;;15.43;100.00;98913.28;4876822;29;20513;-74
2024/02/12 10:33:07;;;;;;;1.15;1.15;;;;;;;15.79;100.00;99000.72;4880266;29;20040;-73
2024/02/12 10:35:40;;;;;;;1.95;1.38;;;;;;;15.36;100.00;98964.69;4874245;29;20041;-73
2024/02/12 10:38:09;;;;;;;6.18;2.50;;;;;;;15.55;100.00;98992.03;4869613;29;20065;-72
2024/02/12 10:41:05;;;;;;;0.75;0.75;;;;;;;15.68;100.00;98979.13;4872291;29;20500;-72
2024/02/12 10:43:35;;;;;;;0.80;0.60;;;;;;;15.85;100.00;98969.63;4872917;29;20136;-73
2024/02/12 10:46:01;;;;;;;8.75;3.15;;;;;;;15.60;100.00;98868.44;4858419;29;20149;-72
2024/02/12 10:48:30;;;;;;;0.30;0.30;;;;;;;15.66;100.00;98871.72;4856665;29;20036;-73
2024/02/12 10:50:56;;;;;;;1.92;1.70;;;;;;;15.85;100.00;98885.88;4875372;29;20044;-72
2024/02/12 10:53:26;;;;;;;1.38;0.68;;;;;;;15.54;100.00;98879.25;4874052;29;20157;-73
2024/02/12 10:55:53;;;;;;;0.70;0.63;;;;;;;16.08;100.00;98969.44;4874701;29;20041;-72
2024/02/12 10:58:19;;;;;;;5.07;1.67;;;;;;;15.35;100.00;98886.31;4860240;29;20080;-74
2024/02/12 11:00:58;;;;;;;3.30;0.77;;;;;;;15.75;100.00;98956.81;4872871;29;20489;-72
2024/02/12 11:03:37;;;;;;;1.00;0.80;;;;;;;15.37;100.00;98922.31;4873605;29;20052;-73
2024/02/12 11:06:08;;;;;;;0.90;0.85;;;;;;;15.26;100.00;98924.56;4873579;29;20033;-73
2024/02/12 11:08:39;;;;;;;4.43;2.45;;;;;;;15.38;100.00;98958.41;4867377;29;20497;-73
2024/02/12 11:11:22;;;;;;;21.52;2.50;;;;;;;15.24;100.00;98933.47;4878736;29;20052;-73
2024/02/12 11:14:12;;;;;;;0.43;0.40;;;;;;;15.25;100.00;98949.28;4874099;29;20073;-72
2024/02/12 11:16:38;;;;;;;0.20;0.20;;;;;;;15.04;100.00;98929.91;4872131;29;20522;-72
2024/02/12 11:19:05;;;;;;;0.28;0.28;;;;;;;14.03;100.00;98813.47;4874616;29;20493;-72
2024/02/12 11:21:35;;;;;;;1.85;1.13;;;;;;;14.24;100.00;98877.72;4874354;29;20059;-74
2024/02/12 11:24:10;;;;;;;0.32;0.32;;;;;;;14.69;100.00;98952.50;4873913;29;20029;-73
2024/02/12 11:26:43;;;;;;;0.98;0.90;;;;;;;14.58;100.00;98960.84;4871254;29;20494;-72
2024/02/12 11:29:10;;;;;;;0.68;0.68;;;;;;;13.95;100.00;98884.09;4872768;29;20057;-73
2024/02/12 11:31:40;;;;;;;0.73;0.73;;;;;;;14.32;100.00;98980.31;4872739;29;20049;-72
2024/02/12 11:34:13;;;;;;;0.75;0.75;;;;;;;14.17;100.00;99004.66;4872277;29;20041;-73
2024/02/12 11:36:40;;;;;;;3.25;0.95;;;;;;;14.00;100.00;99006.13;4868941;29;20061;-74
2024/02/12 11:39:09;;;;;;;0.90;0.70;;;;;;;14.15;100.00;99025.78;4874578;29;20037;-73
2024/02/12 11:41:39;;;;;;;2.53;1.70;;;;;;;13.84;100.00;99008.47;4870701;29;20056;-73
2024/02/12 11:44:06;;;;;;;0.20;0.20;;;;;;;13.13;100.00;98965.19;4873772;29;20045;-72